sensor_id;sensor_type;location;lat;lon;timestamp;pressure;altitude;pressure_sealevel;temperature;humidity
56038;BME280;41907;47.848;9.000;2023-03-13T00:00:54;95458.56;;;7.37;100.00
56038;BME280;41907;47.848;9.000;2023-03-13T00:03:20;95452.88;;;7.43;100.00
56038;BME280;41907;47.848;9.000;2023-03-13T00:05:45;95462.41;;;7.44;100.00
56038;BME280;41907;47.848;9.000;2023-03-13T00:08:11;95456.59;;;7.42;100.00
56038;BME280;41907;47.848;9.000;2023-03-13T00:10:37;95460.06;;;7.43;100.00
56038;BME280;41907;47.848;9.000;2023-03-13T00:13:03;95457.69;;;7.41;100.00
56038;BME280;41907;47.848;9.000;2023-03-13T00:15:29;95456.69;;;7.37;100.00
56038;BME280;41907;47.848;9.000;2023-03-13T00:17:54;95457.28;;;7.48;100.00
56038;BME280;41907;47.848;9.000;2023-03-13T00:20:19;95446.97;;;7.46;100.00
56038;BME280;41907;47.848;9.000;2023-03-13T00:22:45;95446.97;;;7.46;100.00
56038;BME280;41907;47.848;9.000;2023-03-13T00:25:10;95447.28;;;7.45;100.00
56038;BME280;41907;47.848;9.000;2023-03-13T00:27:35;95447.28;;;7.45;100.00
56038;BME280;41907;47.848;9.000;2023-03-13T00:30:01;95446.38;;;7.50;100.00
56038;BME280;41907;47.848;9.000;2023-03-13T00:32:26;95446.38;;;7.50;100.00
56038;BME280;41907;47.848;9.000;2023-03-13T00:34:51;95446.88;;;7.52;100.00
56038;BME280;41907;47.848;9.000;2023-03-13T00:37:17;95448.16;;;7.54;100.00
56038;BME280;41907;47.848;9.000;2023-03-13T00:39:42;95446.88;;;7.52;100.00
56038;BME280;41907;47.848;9.000;2023-03-13T00:42:09;95445.50;;;7.54;100.00
56038;BME280;41907;47.848;9.000;2023-03-13T00:44:34;95442.25;;;7.57;100.00
56038;BME280;41907;47.848;9.000;2023-03-13T00:46:59;95441.75;;;7.55;100.00
56038;BME280;41907;47.848;9.000;2023-03-13T00:49:25;95440.69;;;7.56;100.00
56038;BME280;41907;47.848;9.000;2023-03-13T00:51:50;95443.75;;;7.63;100.00
56038;BME280;41907;47.848;9.000;2023-03-13T00:54:16;95441.88;;;7.64;100.00
56038;BME280;41907;47.848;9.000;2023-03-13T00:56:41;95437.16;;;7.61;100.00
56038;BME280;41907;47.848;9.000;2023-03-13T00:59:06;95447.19;;;7.64;100.00
56038;BME280;41907;47.848;9.000;2023-03-13T01:01:33;95440.38;;;7.58;100.00
56038;BME280;41907;47.848;9.000;2023-03-13T01:04:02;95441.28;;;7.67;100.00
56038;BME280;41907;47.848;9.000;2023-03-13T01:06:29;95439.69;;;7.66;100.00
56038;BME280;41907;47.848;9.000;2023-03-13T01:08:55;95437.75;;;7.71;100.00
56038;BME280;41907;47.848;9.000;2023-03-13T01:11:26;95439.91;;;7.69;100.00
56038;BME280;41907;47.848;9.000;2023-03-13T01:13:53;95438.81;;;7.70;100.00
56038;BME280;41907;47.848;9.000;2023-03-13T01:16:20;95443.06;;;7.71;100.00
56038;BME280;41907;47.848;9.000;2023-03-13T01:18:49;95439.59;;;7.71;100.00
56038;BME280;41907;47.848;9.000;2023-03-13T01:21:16;95442.25;;;7.71;100.00
56038;BME280;41907;47.848;9.000;2023-03-13T01:23:44;95439.78;;;7.74;100.00
56038;BME280;41907;47.848;9.000;2023-03-13T01:26:09;95433.09;;;7.77;100.00
56038;BME280;41907;47.848;9.000;2023-03-13T01:28:35;95435.34;;;7.83;100.00
56038;BME280;41907;47.848;9.000;2023-03-13T01:31:09;95428.19;;;7.84;100.00
56038;BME280;41907;47.848;9.000;2023-03-13T01:33:35;95422.06;;;7.83;100.00
56038;BME280;41907;47.848;9.000;2023-03-13T01:36:01;95421.78;;;7.85;100.00
56038;BME280;41907;47.848;9.000;2023-03-13T01:38:27;95422.06;;;7.83;100.00
56038;BME280;41907;47.848;9.000;2023-03-13T01:40:52;95423.19;;;7.82;100.00
56038;BME280;41907;47.848;9.000;2023-03-13T01:43:21;95424.16;;;7.87;100.00
56038;BME280;41907;47.848;9.000;2023-03-13T01:48:21;95415.81;;;7.79;100.00
56038;BME280;41907;47.848;9.000;2023-03-13T01:50:49;95416.69;;;7.89;100.00
56038;BME280;41907;47.848;9.000;2023-03-13T01:53:14;95405.28;;;7.88;100.00
56038;BME280;41907;47.848;9.000;2023-03-13T01:55:40;95414.53;;;7.91;100.00
56038;BME280;41907;47.848;9.000;2023-03-13T01:58:05;95405.16;;;7.93;100.00
56038;BME280;41907;47.848;9.000;2023-03-13T02:00:33;95414.53;;;7.91;100.00
56038;BME280;41907;47.848;9.000;2023-03-13T02:03:05;95408.13;;;7.92;100.00
56038;BME280;41907;47.848;9.000;2023-03-13T02:05:33;95394.66;;;7.88;100.00
56038;BME280;41907;47.848;9.000;2023-03-13T02:08:08;95397.31;;;7.88;100.00
56038;BME280;41907;47.848;9.000;2023-03-13T02:10:48;95407.63;;;7.76;100.00
56038;BME280;41907;47.848;9.000;2023-03-13T02:13:15;95396.72;;;7.77;100.00
56038;BME280;41907;47.848;9.000;2023-03-13T02:15:41;95385.91;;;7.74;100.00
56038;BME280;41907;47.848;9.000;2023-03-13T02:18:07;95386.81;;;7.83;100.00
56038;BME280;41907;47.848;9.000;2023-03-13T02:20:32;95387.09;;;7.81;100.00
56038;BME280;41907;47.848;9.000;2023-03-13T02:25:34;95379.72;;;7.78;100.00
56038;BME280;41907;47.848;9.000;2023-03-13T02:28:04;95377.56;;;7.80;100.00
56038;BME280;41907;47.848;9.000;2023-03-13T02:30:32;95378.63;;;7.79;100.00
56038;BME280;41907;47.848;9.000;2023-03-13T02:32:58;95375.97;;;7.79;100.00
56038;BME280;41907;47.848;9.000;2023-03-13T02:35:24;95369.09;;;7.78;100.00
56038;BME280;41907;47.848;9.000;2023-03-13T02:37:53;95354.75;;;7.79;100.00
56038;BME280;41907;47.848;9.000;2023-03-13T02:40:26;95354.75;;;7.79;100.00
56038;BME280;41907;47.848;9.000;2023-03-13T02:42:53;95341.97;;;7.68;100.00
56038;BME280;41907;47.848;9.000;2023-03-13T02:45:20;95340.19;;;7.77;100.00
56038;BME280;41907;47.848;9.000;2023-03-13T02:47:45;95337.47;;;7.68;100.00
56038;BME280;41907;47.848;9.000;2023-03-13T02:50:12;95346.59;;;7.76;100.00
56038;BME280;41907;47.848;9.000;2023-03-13T02:52:54;95337.25;;;7.78;100.00
56038;BME280;41907;47.848;9.000;2023-03-13T02:55:37;95328.00;;;7.76;100.00
56038;BME280;41907;47.848;9.000;2023-03-13T02:58:03;95323.13;;;7.69;100.00
56038;BME280;41907;47.848;9.000;2023-03-13T03:00:29;95322.03;;;7.70;100.00
56038;BME280;41907;47.848;9.000;2023-03-13T03:02:54;95329.69;;;7.72;100.00
56038;BME280;41907;47.848;9.000;2023-03-13T03:05:20;95317.59;;;7.79;100.00
56038;BME280;41907;47.848;9.000;2023-03-13T03:07:46;95317.00;;;7.82;100.00
56038;BME280;41907;47.848;9.000;2023-03-13T03:10:12;95308.41;;;7.85;100.00
56038;BME280;41907;47.848;9.000;2023-03-13T03:12:37;95319.66;;;7.82;100.00
56038;BME280;41907;47.848;9.000;2023-03-13T03:15:03;95314.34;;;7.82;100.00
56038;BME280;41907;47.848;9.000;2023-03-13T03:17:29;95311.19;;;7.80;100.00
56038;BME280;41907;47.848;9.000;2023-03-13T03:19:54;95313.84;;;7.80;100.00
56038;BME280;41907;47.848;9.000;2023-03-13T03:22:20;95318.53;;;7.83;100.00
56038;BME280;41907;47.848;9.000;2023-03-13T03:24:45;95320.59;;;7.87;100.00
56038;BME280;41907;47.848;9.000;2023-03-13T03:27:10;95320.09;;;7.84;100.00
56038;BME280;41907;47.848;9.000;2023-03-13T03:29:36;95308.25;;;7.82;100.00
56038;BME280;41907;47.848;9.000;2023-03-13T03:32:01;95306.66;;;7.81;100.00
56038;BME280;41907;47.848;9.000;2023-03-13T03:34:26;95309.03;;;7.82;100.00
56038;BME280;41907;47.848;9.000;2023-03-13T03:36:52;95304.81;;;7.81;100.00
56038;BME280;41907;47.848;9.000;2023-03-13T03:39:17;95305.59;;;7.82;100.00
56038;BME280;41907;47.848;9.000;2023-03-13T03:41:42;95303.53;;;7.79;100.00
56038;BME280;41907;47.848;9.000;2023-03-13T03:44:08;95304.00;;;7.81;100.00
56038;BME280;41907;47.848;9.000;2023-03-13T03:46:33;95305.25;;;7.83;100.00
56038;BME280;41907;47.848;9.000;2023-03-13T03:48:58;95310.25;;;7.63;100.00
56038;BME280;41907;47.848;9.000;2023-03-13T03:51:24;95313.09;;;7.66;100.00
56038;BME280;41907;47.848;9.000;2023-03-13T03:53:49;95303.16;;;7.72;100.00
56038;BME280;41907;47.848;9.000;2023-03-13T03:56:15;95301.28;;;7.72;100.00
56038;BME280;41907;47.848;9.000;2023-03-13T03:58:40;95305.50;;;7.73;100.00
56038;BME280;41907;47.848;9.000;2023-03-13T04:01:05;95292.53;;;7.72;100.00
56038;BME280;41907;47.848;9.000;2023-03-13T04:03:31;95303.53;;;7.79;100.00
56038;BME280;41907;47.848;9.000;2023-03-13T04:05:56;95316.78;;;7.79;100.00
56038;BME280;41907;47.848;9.000;2023-03-13T04:08:22;95293.88;;;7.83;100.00
56038;BME280;41907;47.848;9.000;2023-03-13T04:10:48;95278.47;;;7.71;100.00
56038;BME280;41907;47.848;9.000;2023-03-13T04:13:13;95273.97;;;7.72;100.00
56038;BME280;41907;47.848;9.000;2023-03-13T04:15:39;95263.50;;;7.75;100.00
56038;BME280;41907;47.848;9.000;2023-03-13T04:18:05;95253.81;;;7.71;100.00
56038;BME280;41907;47.848;9.000;2023-03-13T04:20:30;95249.44;;;7.75;100.00
56038;BME280;41907;47.848;9.000;2023-03-13T04:22:56;95258.69;;;7.77;100.00
56038;BME280;41907;47.848;9.000;2023-03-13T04:25:21;95263.69;;;7.79;100.00
56038;BME280;41907;47.848;9.000;2023-03-13T04:27:46;95279.03;;;7.82;100.00
56038;BME280;41907;47.848;9.000;2023-03-13T04:30:12;95274.97;;;7.84;100.00
56038;BME280;41907;47.848;9.000;2023-03-13T04:32:37;95280.91;;;7.81;100.00
56038;BME280;41907;47.848;9.000;2023-03-13T04:35:03;95263.41;;;7.80;100.00
56038;BME280;41907;47.848;9.000;2023-03-13T04:37:28;95264.59;;;7.74;100.00
56038;BME280;41907;47.848;9.000;2023-03-13T04:39:54;95265.38;;;7.75;100.00
56038;BME280;41907;47.848;9.000;2023-03-13T04:42:19;95260.06;;;7.75;100.00
56038;BME280;41907;47.848;9.000;2023-03-13T04:44:44;95255.94;;;7.82;100.00
56038;BME280;41907;47.848;9.000;2023-03-13T04:47:10;95243.91;;;7.85;100.00
56038;BME280;41907;47.848;9.000;2023-03-13T04:49:35;95254.22;;;7.87;100.00
56038;BME280;41907;47.848;9.000;2023-03-13T04:52:00;95264.25;;;7.90;100.00
56038;BME280;41907;47.848;9.000;2023-03-13T04:54:26;95250.97;;;7.90;100.00
56038;BME280;41907;47.848;9.000;2023-03-13T04:56:51;95242.09;;;7.94;100.00
56038;BME280;41907;47.848;9.000;2023-03-13T04:59:17;95252.63;;;7.99;100.00
56038;BME280;41907;47.848;9.000;2023-03-13T05:01:42;95251.03;;;7.98;100.00
56038;BME280;41907;47.848;9.000;2023-03-13T05:04:08;95249.16;;;7.99;100.00
56038;BME280;41907;47.848;9.000;2023-03-13T05:06:34;95252.63;;;7.99;100.00
56038;BME280;41907;47.848;9.000;2023-03-13T05:09:01;95255.84;;;7.96;100.00
56038;BME280;41907;47.848;9.000;2023-03-13T05:11:26;95254.59;;;7.94;100.00
56038;BME280;41907;47.848;9.000;2023-03-13T05:13:52;95250.34;;;7.93;100.00
56038;BME280;41907;47.848;9.000;2023-03-13T05:16:17;95250.69;;;7.91;100.00
56038;BME280;41907;47.848;9.000;2023-03-13T05:18:43;95249.41;;;7.89;100.00
56038;BME280;41907;47.848;9.000;2023-03-13T05:21:08;95236.38;;;7.78;100.00
56038;BME280;41907;47.848;9.000;2023-03-13T05:23:34;95238.25;;;7.78;100.00
56038;BME280;41907;47.848;9.000;2023-03-13T05:25:59;95228.41;;;7.78;100.00
56038;BME280;41907;47.848;9.000;2023-03-13T05:28:25;95229.84;;;7.84;100.00
56038;BME280;41907;47.848;9.000;2023-03-13T05:30:51;95227.38;;;7.88;100.00
56038;BME280;41907;47.848;9.000;2023-03-13T05:33:16;95229.13;;;7.93;100.00
56038;BME280;41907;47.848;9.000;2023-03-13T05:35:44;95229.91;;;7.93;100.00
56038;BME280;41907;47.848;9.000;2023-03-13T05:38:09;95226.91;;;7.86;100.00
56038;BME280;41907;47.848;9.000;2023-03-13T05:40:34;95223.03;;;7.92;100.00
56038;BME280;41907;47.848;9.000;2023-03-13T05:43:00;95222.56;;;7.90;100.00
56038;BME280;41907;47.848;9.000;2023-03-13T05:45:25;95230.59;;;7.99;100.00
56038;BME280;41907;47.848;9.000;2023-03-13T05:47:51;95218.88;;;8.00;100.00
56038;BME280;41907;47.848;9.000;2023-03-13T05:50:16;95219.16;;;7.98;100.00
56038;BME280;41907;47.848;9.000;2023-03-13T05:52:42;95224.78;;;7.97;100.00
56038;BME280;41907;47.848;9.000;2023-03-13T05:55:07;95215.44;;;7.99;100.00
56038;BME280;41907;47.848;9.000;2023-03-13T05:57:33;95225.63;;;8.06;100.00
56038;BME280;41907;47.848;9.000;2023-03-13T05:59:58;95235.50;;;8.14;100.00
56038;BME280;41907;47.848;9.000;2023-03-13T06:02:24;95237.50;;;8.08;100.00
56038;BME280;41907;47.848;9.000;2023-03-13T06:04:49;95234.81;;;8.00;100.00
56038;BME280;41907;47.848;9.000;2023-03-13T06:07:14;95226.66;;;7.96;100.00
56038;BME280;41907;47.848;9.000;2023-03-13T06:09:40;95230.88;;;7.97;100.00
56038;BME280;41907;47.848;9.000;2023-03-13T06:12:10;95237.81;;;8.07;100.00
56038;BME280;41907;47.848;9.000;2023-03-13T06:14:35;95233.94;;;8.13;100.00
56038;BME280;41907;47.848;9.000;2023-03-13T06:17:02;95234.56;;;8.10;100.00
56038;BME280;41907;47.848;9.000;2023-03-13T06:19:28;95228.81;;;8.16;100.00
56038;BME280;41907;47.848;9.000;2023-03-13T06:21:53;95214.94;;;8.19;100.00
56038;BME280;41907;47.848;9.000;2023-03-13T06:24:18;95228.44;;;8.32;100.00
56038;BME280;41907;47.848;9.000;2023-03-13T06:26:44;95234.28;;;8.42;100.00
56038;BME280;41907;47.848;9.000;2023-03-13T06:29:10;95233.69;;;8.45;100.00
56038;BME280;41907;47.848;9.000;2023-03-13T06:31:35;95229.00;;;8.51;100.00
56038;BME280;41907;47.848;9.000;2023-03-13T06:34:01;95229.44;;;8.44;100.00
56038;BME280;41907;47.848;9.000;2023-03-13T06:36:26;95224.31;;;8.48;100.00
56038;BME280;41907;47.848;9.000;2023-03-13T06:38:51;95222.88;;;8.42;100.00
56038;BME280;41907;47.848;9.000;2023-03-13T06:41:17;95228.25;;;8.28;100.00
56038;BME280;41907;47.848;9.000;2023-03-13T06:43:42;95236.47;;;8.40;100.00
56038;BME280;41907;47.848;9.000;2023-03-13T06:46:15;95230.09;;;8.50;100.00
56038;BME280;41907;47.848;9.000;2023-03-13T06:48:41;95236.72;;;8.61;100.00
56038;BME280;41907;47.848;9.000;2023-03-13T06:51:10;95239.56;;;8.65;100.00
56038;BME280;41907;47.848;9.000;2023-03-13T06:53:36;95228.00;;;8.78;100.00
56038;BME280;41907;47.848;9.000;2023-03-13T06:56:02;95231.94;;;8.80;100.00
56038;BME280;41907;47.848;9.000;2023-03-13T06:58:27;95226.81;;;8.84;100.00
56038;BME280;41907;47.848;9.000;2023-03-13T07:00:52;95223.53;;;8.87;100.00
56038;BME280;41907;47.848;9.000;2023-03-13T07:03:18;95218.09;;;9.01;100.00
56038;BME280;41907;47.848;9.000;2023-03-13T07:05:43;95214.97;;;9.07;100.00
56038;BME280;41907;47.848;9.000;2023-03-13T07:08:08;95203.25;;;9.25;100.00
56038;BME280;41907;47.848;9.000;2023-03-13T07:10:34;95198.72;;;9.34;100.00
56038;BME280;41907;47.848;9.000;2023-03-13T07:12:59;95197.00;;;9.47;100.00
56038;BME280;41907;47.848;9.000;2023-03-13T07:15:24;95197.97;;;9.51;100.00
56038;BME280;41907;47.848;9.000;2023-03-13T07:17:50;95199.19;;;9.45;100.00
56038;BME280;41907;47.848;9.000;2023-03-13T07:20:15;95201.56;;;9.55;100.00
56038;BME280;41907;47.848;9.000;2023-03-13T07:22:41;95202.66;;;9.80;100.00
56038;BME280;41907;47.848;9.000;2023-03-13T07:25:06;95200.44;;;9.91;100.00
56038;BME280;41907;47.848;9.000;2023-03-13T07:27:33;95196.53;;;9.97;99.23
56038;BME280;41907;47.848;9.000;2023-03-13T07:29:58;95205.66;;;10.51;97.35
56038;BME280;41907;47.848;9.000;2023-03-13T07:32:24;95193.75;;;11.37;91.08
56038;BME280;41907;47.848;9.000;2023-03-13T07:34:49;95194.09;;;11.77;89.52
56038;BME280;41907;47.848;9.000;2023-03-13T07:37:15;95188.66;;;12.18;86.46
56038;BME280;41907;47.848;9.000;2023-03-13T07:39:42;95186.34;;;12.17;85.71
56038;BME280;41907;47.848;9.000;2023-03-13T07:42:10;95201.97;;;12.39;85.11
56038;BME280;41907;47.848;9.000;2023-03-13T07:44:36;95204.81;;;13.80;80.02
56038;BME280;41907;47.848;9.000;2023-03-13T07:47:01;95188.44;;;13.97;76.65
56038;BME280;41907;47.848;9.000;2023-03-13T07:49:27;95209.59;;;13.47;78.65
56038;BME280;41907;47.848;9.000;2023-03-13T07:51:53;95210.28;;;13.31;80.00
56038;BME280;41907;47.848;9.000;2023-03-13T07:54:18;95212.63;;;13.09;81.01
56038;BME280;41907;47.848;9.000;2023-03-13T07:56:44;95206.72;;;12.79;82.77
56038;BME280;41907;47.848;9.000;2023-03-13T07:59:09;95200.78;;;12.85;82.36
56038;BME280;41907;47.848;9.000;2023-03-13T08:01:35;95200.22;;;12.55;83.16
56038;BME280;41907;47.848;9.000;2023-03-13T08:04:00;95199.44;;;12.55;84.02
56038;BME280;41907;47.848;9.000;2023-03-13T08:06:28;95213.25;;;12.45;85.58
56038;BME280;41907;47.848;9.000;2023-03-13T08:08:56;95212.41;;;11.87;86.83
56038;BME280;41907;47.848;9.000;2023-03-13T08:11:23;95209.25;;;11.64;89.40
56038;BME280;41907;47.848;9.000;2023-03-13T08:13:49;95209.06;;;11.69;89.61
56038;BME280;41907;47.848;9.000;2023-03-13T08:16:19;95201.03;;;11.90;88.78
56038;BME280;41907;47.848;9.000;2023-03-13T08:18:47;95187.84;;;12.06;86.26
56038;BME280;41907;47.848;9.000;2023-03-13T08:21:22;95199.34;;;11.65;88.48
56038;BME280;41907;47.848;9.000;2023-03-13T08:23:48;95205.72;;;11.72;87.82
56038;BME280;41907;47.848;9.000;2023-03-13T08:26:16;95213.63;;;11.69;88.40
56038;BME280;41907;47.848;9.000;2023-03-13T08:28:43;95207.59;;;11.72;87.77
56038;BME280;41907;47.848;9.000;2023-03-13T08:31:13;95194.22;;;11.60;89.54
56038;BME280;41907;47.848;9.000;2023-03-13T08:33:41;95190.44;;;11.61;90.21
56038;BME280;41907;47.848;9.000;2023-03-13T08:36:18;95192.63;;;12.00;88.56
56038;BME280;41907;47.848;9.000;2023-03-13T08:38:46;95186.91;;;12.22;86.02
56038;BME280;41907;47.848;9.000;2023-03-13T08:41:17;95195.75;;;12.35;85.85
56038;BME280;41907;47.848;9.000;2023-03-13T08:43:43;95191.16;;;12.48;85.09
56038;BME280;41907;47.848;9.000;2023-03-13T08:46:08;95197.09;;;12.53;84.93
56038;BME280;41907;47.848;9.000;2023-03-13T08:48:34;95184.31;;;12.71;84.46
56038;BME280;41907;47.848;9.000;2023-03-13T08:51:10;95185.88;;;12.72;84.37
56038;BME280;41907;47.848;9.000;2023-03-13T08:53:37;95176.38;;;12.99;82.95
56038;BME280;41907;47.848;9.000;2023-03-13T08:56:02;95179.63;;;13.29;82.26
56038;BME280;41907;47.848;9.000;2023-03-13T08:58:29;95167.47;;;13.19;81.47
56038;BME280;41907;47.848;9.000;2023-03-13T09:01:03;95165.78;;;13.27;80.82
56038;BME280;41907;47.848;9.000;2023-03-13T09:03:30;95152.44;;;13.43;79.38
56038;BME280;41907;47.848;9.000;2023-03-13T09:05:57;95154.22;;;13.78;78.15
56038;BME280;41907;47.848;9.000;2023-03-13T09:08:23;95142.84;;;13.97;76.85
56038;BME280;41907;47.848;9.000;2023-03-13T09:10:54;95139.91;;;14.30;73.86
56038;BME280;41907;47.848;9.000;2023-03-13T09:13:20;95148.72;;;15.09;72.11
56038;BME280;41907;47.848;9.000;2023-03-13T09:15:56;95147.41;;;15.19;69.60
56038;BME280;41907;47.848;9.000;2023-03-13T09:18:22;95143.63;;;16.85;64.92
56038;BME280;41907;47.848;9.000;2023-03-13T09:20:47;95148.34;;;16.91;61.77
56038;BME280;41907;47.848;9.000;2023-03-13T09:23:12;95149.09;;;16.88;62.23
56038;BME280;41907;47.848;9.000;2023-03-13T09:25:38;95139.53;;;16.03;64.46
56038;BME280;41907;47.848;9.000;2023-03-13T09:28:03;95137.81;;;15.95;65.52
56038;BME280;41907;47.848;9.000;2023-03-13T09:30:29;95134.25;;;16.29;62.94
56038;BME280;41907;47.848;9.000;2023-03-13T09:32:54;95140.78;;;16.09;63.37
56038;BME280;41907;47.848;9.000;2023-03-13T09:35:19;95137.69;;;16.53;62.15
56038;BME280;41907;47.848;9.000;2023-03-13T09:37:45;95135.41;;;17.00;61.28
56038;BME280;41907;47.848;9.000;2023-03-13T09:40:14;95132.63;;;18.53;57.44
56038;BME280;41907;47.848;9.000;2023-03-13T09:42:52;95116.59;;;20.05;52.61
56038;BME280;41907;47.848;9.000;2023-03-13T09:45:29;95129.31;;;21.82;45.74
56038;BME280;41907;47.848;9.000;2023-03-13T09:47:59;95140.25;;;23.07;42.46
56038;BME280;41907;47.848;9.000;2023-03-13T09:50:29;95135.00;;;23.27;39.77
56038;BME280;41907;47.848;9.000;2023-03-13T09:53:05;95143.91;;;23.72;39.74
56038;BME280;41907;47.848;9.000;2023-03-13T09:55:37;95140.75;;;24.07;38.99
56038;BME280;41907;47.848;9.000;2023-03-13T09:58:33;95129.31;;;24.20;37.16
56038;BME280;41907;47.848;9.000;2023-03-13T10:01:01;95121.97;;;23.86;38.42
56038;BME280;41907;47.848;9.000;2023-03-13T10:03:34;95110.03;;;24.37;38.43
56038;BME280;41907;47.848;9.000;2023-03-13T10:06:03;95105.06;;;25.72;35.60
56038;BME280;41907;47.848;9.000;2023-03-13T10:08:35;95104.06;;;26.90;33.51
56038;BME280;41907;47.848;9.000;2023-03-13T10:13:56;95112.25;;;28.26;31.35
56038;BME280;41907;47.848;9.000;2023-03-13T10:16:40;95110.19;;;28.55;30.24
56038;BME280;41907;47.848;9.000;2023-03-13T10:19:14;95109.41;;;28.29;29.76
56038;BME280;41907;47.848;9.000;2023-03-13T10:21:42;95106.56;;;27.01;31.10
56038;BME280;41907;47.848;9.000;2023-03-13T10:26:37;95093.66;;;27.18;32.01
56038;BME280;41907;47.848;9.000;2023-03-13T10:29:21;95096.13;;;26.27;32.32
56038;BME280;41907;47.848;9.000;2023-03-13T10:32:01;95085.84;;;26.51;32.96
56038;BME280;41907;47.848;9.000;2023-03-13T10:39:51;95066.22;;;25.65;34.59
56038;BME280;41907;47.848;9.000;2023-03-13T10:42:30;95063.56;;;25.97;33.75
56038;BME280;41907;47.848;9.000;2023-03-13T10:44:59;95055.59;;;26.42;33.82
56038;BME280;41907;47.848;9.000;2023-03-13T10:47:25;95054.38;;;26.43;32.70
56038;BME280;41907;47.848;9.000;2023-03-13T10:49:55;95046.09;;;25.12;34.66
56038;BME280;41907;47.848;9.000;2023-03-13T10:52:43;95052.22;;;23.62;37.29
56038;BME280;41907;47.848;9.000;2023-03-13T10:55:21;95042.47;;;22.45;39.73
56038;BME280;41907;47.848;9.000;2023-03-13T10:58:04;95034.91;;;22.67;41.77
56038;BME280;41907;47.848;9.000;2023-03-13T11:03:05;95019.72;;;21.51;43.39
56038;BME280;41907;47.848;9.000;2023-03-13T11:05:36;95017.56;;;22.53;42.04
56038;BME280;41907;47.848;9.000;2023-03-13T11:08:34;95009.41;;;22.94;40.33
56038;BME280;41907;47.848;9.000;2023-03-13T11:11:05;94995.28;;;23.41;39.54
56038;BME280;41907;47.848;9.000;2023-03-13T11:13:42;94991.28;;;24.36;37.12
56038;BME280;41907;47.848;9.000;2023-03-13T11:16:27;94983.00;;;24.17;38.48
56038;BME280;41907;47.848;9.000;2023-03-13T11:27:30;94943.53;;;23.44;38.04
56038;BME280;41907;47.848;9.000;2023-03-13T11:32:42;94940.00;;;21.31;42.77
56038;BME280;41907;47.848;9.000;2023-03-13T11:37:43;94938.19;;;20.89;44.25
56038;BME280;41907;47.848;9.000;2023-03-13T11:40:17;94939.69;;;21.81;43.74
56038;BME280;41907;47.848;9.000;2023-03-13T11:42:52;94934.09;;;22.50;41.98
56038;BME280;41907;47.848;9.000;2023-03-13T11:48:07;94931.03;;;22.86;41.53
56038;BME280;41907;47.848;9.000;2023-03-13T11:50:54;94933.41;;;21.91;43.31
56038;BME280;41907;47.848;9.000;2023-03-13T11:56:07;94916.84;;;21.78;43.53
56038;BME280;41907;47.848;9.000;2023-03-13T12:01:25;94905.38;;;21.53;45.84
56038;BME280;41907;47.848;9.000;2023-03-13T12:06:37;94887.88;;;22.13;42.80
56038;BME280;41907;47.848;9.000;2023-03-13T12:09:55;94882.00;;;21.00;45.31
56038;BME280;41907;47.848;9.000;2023-03-13T12:12:32;94872.22;;;21.24;44.36
56038;BME280;41907;47.848;9.000;2023-03-13T12:15:19;94870.63;;;20.18;46.21
56038;BME280;41907;47.848;9.000;2023-03-13T12:17:59;94859.00;;;19.29;48.54
56038;BME280;41907;47.848;9.000;2023-03-13T12:20:55;94850.47;;;19.13;50.67
56038;BME280;41907;47.848;9.000;2023-03-13T12:26:40;94834.66;;;20.18;48.11
56038;BME280;41907;47.848;9.000;2023-03-13T12:29:16;94818.72;;;20.52;48.08
56038;BME280;41907;47.848;9.000;2023-03-13T12:34:19;94805.97;;;20.41;46.74
56038;BME280;41907;47.848;9.000;2023-03-13T12:44:48;94787.19;;;19.71;49.22
56038;BME280;41907;47.848;9.000;2023-03-13T12:47:24;94778.25;;;19.88;48.64
56038;BME280;41907;47.848;9.000;2023-03-13T12:52:46;94746.59;;;19.35;49.88
56038;BME280;41907;47.848;9.000;2023-03-13T12:55:22;94736.56;;;19.71;49.76
56038;BME280;41907;47.848;9.000;2023-03-13T13:00:34;94731.00;;;20.10;49.97
56038;BME280;41907;47.848;9.000;2023-03-13T13:08:39;94711.00;;;20.73;48.32
56038;BME280;41907;47.848;9.000;2023-03-13T13:16:40;94684.09;;;20.45;49.25
56038;BME280;41907;47.848;9.000;2023-03-13T13:24:55;94667.72;;;19.76;49.98
56038;BME280;41907;47.848;9.000;2023-03-13T13:32:55;94656.16;;;19.72;49.92
56038;BME280;41907;47.848;9.000;2023-03-13T13:35:30;94648.06;;;19.61;50.27
56038;BME280;41907;47.848;9.000;2023-03-13T13:40:41;94630.72;;;19.26;50.36
56038;BME280;41907;47.848;9.000;2023-03-13T13:43:22;94620.34;;;19.25;50.26
56038;BME280;41907;47.848;9.000;2023-03-13T13:46:24;94610.63;;;19.38;50.76
56038;BME280;41907;47.848;9.000;2023-03-13T13:49:13;94611.75;;;19.44;50.00
56038;BME280;41907;47.848;9.000;2023-03-13T13:52:16;94608.66;;;19.56;49.80
56038;BME280;41907;47.848;9.000;2023-03-13T13:54:31;94610.97;;;19.65;50.07
56038;BME280;41907;47.848;9.000;2023-03-13T13:57:06;94595.50;;;19.65;49.25
56038;BME280;41907;47.848;9.000;2023-03-13T13:59:39;94581.13;;;19.83;49.60
56038;BME280;41907;47.848;9.000;2023-03-13T14:04:41;94570.06;;;20.25;47.93
56038;BME280;41907;47.848;9.000;2023-03-13T14:07:17;94564.28;;;20.20;47.76
56038;BME280;41907;47.848;9.000;2023-03-13T14:09:53;94558.16;;;20.12;48.39
56038;BME280;41907;47.848;9.000;2023-03-13T14:12:30;94556.19;;;20.16;48.15
56038;BME280;41907;47.848;9.000;2023-03-13T14:15:15;94554.06;;;19.83;48.42
56038;BME280;41907;47.848;9.000;2023-03-13T14:23:38;94536.50;;;19.28;49.49
56038;BME280;41907;47.848;9.000;2023-03-13T14:28:41;94534.34;;;19.86;48.47
56038;BME280;41907;47.848;9.000;2023-03-13T14:31:08;94528.09;;;19.92;48.20
56038;BME280;41907;47.848;9.000;2023-03-13T14:33:34;94536.41;;;19.60;49.08
56038;BME280;41907;47.848;9.000;2023-03-13T14:36:00;94519.66;;;19.87;49.05
56038;BME280;41907;47.848;9.000;2023-03-13T14:38:27;94504.63;;;19.75;48.81
56038;BME280;41907;47.848;9.000;2023-03-13T14:40:57;94503.78;;;19.89;48.77
56038;BME280;41907;47.848;9.000;2023-03-13T14:43:34;94510.25;;;20.02;48.78
56038;BME280;41907;47.848;9.000;2023-03-13T14:46:13;94498.78;;;19.87;48.69